createdAt,value
2023-03-20T00:01:19.795Z,29.60
2023-03-20T00:03:46.834Z,34.80
2023-03-20T00:06:19.620Z,30.20
2023-03-20T00:08:48.174Z,27.50
2023-03-20T00:11:23.791Z,28.70
2023-03-20T00:13:50.547Z,30.40
2023-03-20T00:16:17.139Z,32.67
2023-03-20T00:18:43.765Z,30.33
2023-03-20T00:21:17.644Z,32.63
2023-03-20T00:23:44.580Z,30.73
2023-03-20T00:26:14.227Z,30.87
2023-03-20T00:28:48.673Z,30.60
2023-03-20T00:31:41.653Z,35.37
2023-03-20T00:34:16.193Z,32.63
2023-03-20T00:36:43.334Z,36.73
2023-03-20T00:39:09.908Z,36.17
2023-03-20T00:41:52.767Z,38.23
2023-03-20T00:44:22.337Z,37.13
2023-03-20T00:46:55.352Z,33.20
2023-03-20T00:49:32.419Z,36.47
2023-03-20T00:52:01.137Z,31.77
2023-03-20T00:54:28.419Z,32.03
2023-03-20T00:57:01.512Z,39.00
2023-03-20T00:59:33.246Z,41.60
2023-03-20T01:02:02.455Z,33.77
2023-03-20T01:04:42.474Z,33.70
2023-03-20T01:07:14.377Z,31.47
2023-03-20T01:09:41.625Z,30.43
2023-03-20T01:12:10.481Z,31.70
2023-03-20T01:14:37.213Z,36.30
2023-03-20T01:17:03.792Z,30.20
2023-03-20T01:19:30.342Z,33.20
2023-03-20T01:21:56.927Z,31.93
2023-03-20T01:24:23.470Z,32.27
2023-03-20T01:26:51.670Z,30.70
2023-03-20T01:29:24.158Z,32.23
2023-03-20T01:31:52.141Z,34.93
2023-03-20T01:34:20.822Z,32.00
2023-03-20T01:36:56.990Z,34.23
2023-03-20T01:39:33.456Z,28.77
2023-03-20T01:42:00.769Z,32.90
2023-03-20T01:44:33.256Z,33.53
2023-03-20T01:47:01.258Z,29.47
2023-03-20T01:49:28.613Z,24.43
2023-03-20T01:51:57.284Z,27.27
2023-03-20T01:54:34.180Z,24.17
2023-03-20T01:57:13.267Z,25.27
2023-03-20T01:59:45.518Z,24.60
2023-03-20T02:02:15.639Z,21.63
2023-03-20T02:04:46.516Z,19.70
2023-03-20T02:07:16.487Z,18.33
2023-03-20T02:09:43.103Z,20.10
2023-03-20T02:12:10.863Z,21.60
2023-03-20T02:14:38.014Z,19.57
2023-03-20T02:17:07.793Z,18.90
2023-03-20T02:19:49.733Z,15.00
2023-03-20T02:22:37.006Z,18.70
2023-03-20T02:25:15.731Z,19.07
2023-03-20T02:27:53.292Z,21.73
2023-03-20T02:31:04.094Z,20.87
2023-03-20T02:34:05.224Z,23.63
2023-03-20T02:36:57.941Z,21.20
2023-03-20T02:39:33.870Z,20.67
2023-03-20T02:42:05.117Z,17.37
2023-03-20T02:45:02.445Z,18.40
2023-03-20T02:47:51.948Z,21.67
2023-03-20T02:50:44.003Z,18.57
2023-03-20T02:53:20.168Z,20.33
2023-03-20T02:56:11.532Z,18.77
2023-03-20T02:58:52.787Z,19.17
2023-03-20T03:01:29.099Z,19.20
2023-03-20T03:03:57.118Z,16.07
2023-03-20T03:06:32.433Z,21.70
2023-03-20T03:09:19.886Z,18.23
2023-03-20T03:12:04.600Z,16.23
2023-03-20T03:15:00.533Z,15.57
2023-03-20T03:17:31.307Z,19.50
2023-03-20T03:20:04.432Z,16.93
2023-03-20T03:22:31.783Z,18.07
2023-03-20T03:24:58.326Z,19.17
2023-03-20T03:27:40.830Z,19.90
2023-03-20T03:30:10.985Z,18.10
2023-03-20T03:32:46.346Z,19.67
2023-03-20T03:35:19.711Z,18.90
2023-03-20T03:38:01.871Z,18.90
2023-03-20T03:40:36.986Z,15.83
2023-03-20T03:43:12.032Z,16.00
2023-03-20T03:45:46.331Z,19.53
2023-03-20T03:48:23.866Z,15.70
2023-03-20T03:50:54.716Z,17.80
2023-03-20T03:53:27.584Z,16.50
2023-03-20T03:55:59.722Z,17.90
2023-03-20T03:58:33.059Z,13.83
2023-03-20T04:01:01.413Z,15.40
2023-03-20T04:03:34.022Z,15.47
2023-03-20T04:06:04.925Z,15.03
2023-03-20T04:08:31.511Z,16.43
2023-03-20T04:10:58.788Z,14.60
2023-03-20T04:13:25.441Z,13.90
2023-03-20T04:15:52.347Z,15.80
2023-03-20T04:18:22.182Z,16.13
2023-03-20T04:20:48.943Z,12.50
2023-03-20T04:23:15.673Z,12.50
2023-03-20T04:25:42.592Z,13.27
2023-03-20T04:28:10.844Z,11.10
2023-03-20T04:30:37.431Z,16.13
2023-03-20T04:33:04.208Z,14.30
2023-03-20T04:35:30.886Z,15.57
2023-03-20T04:37:57.478Z,13.30
2023-03-20T04:40:24.146Z,12.27
2023-03-20T04:42:50.936Z,14.27
2023-03-20T04:45:17.559Z,12.70
2023-03-20T04:47:44.143Z,15.87
2023-03-20T04:50:13.842Z,12.47
2023-03-20T04:52:40.395Z,12.13
2023-03-20T04:55:07.765Z,13.63
2023-03-20T04:57:34.376Z,17.97
2023-03-20T05:00:01.062Z,12.90
2023-03-20T05:02:27.694Z,15.33
2023-03-20T05:04:54.289Z,12.57
2023-03-20T05:07:21.431Z,12.93
2023-03-20T05:09:48.340Z,10.50
2023-03-20T05:12:15.268Z,11.33
2023-03-20T05:14:41.911Z,10.90
2023-03-20T05:17:08.702Z,13.50
2023-03-20T05:19:35.473Z,12.53
2023-03-20T05:22:02.593Z,11.10
2023-03-20T05:24:29.190Z,11.63
2023-03-20T05:26:55.821Z,12.50
2023-03-20T05:29:22.861Z,10.33
2023-03-20T05:31:49.524Z,11.13
2023-03-20T05:34:16.128Z,12.87
2023-03-20T05:36:44.171Z,12.57
2023-03-20T05:39:11.554Z,15.73
2023-03-20T05:41:38.196Z,11.50
2023-03-20T05:44:05.053Z,14.63
2023-03-20T05:46:31.711Z,12.90
2023-03-20T05:48:58.387Z,13.20
2023-03-20T05:51:25.067Z,15.47
2023-03-20T05:53:51.731Z,15.40
2023-03-20T05:56:18.450Z,19.90
2023-03-20T05:58:45.204Z,17.93
2023-03-20T06:01:11.825Z,15.97
2023-03-20T06:03:38.500Z,17.00
2023-03-20T06:06:05.719Z,19.73
2023-03-20T06:08:32.275Z,19.30
2023-03-20T06:10:58.906Z,22.37
2023-03-20T06:13:25.589Z,16.43
2023-03-20T06:15:52.453Z,16.60
2023-03-20T06:18:19.131Z,18.13
2023-03-20T06:20:45.775Z,21.57
2023-03-20T06:23:13.559Z,20.37
2023-03-20T06:25:40.108Z,15.90
2023-03-20T06:28:06.780Z,19.10
2023-03-20T06:30:33.350Z,21.47
2023-03-20T06:32:59.940Z,20.90
2023-03-20T06:35:30.997Z,26.10
2023-03-20T06:37:58.364Z,22.70
2023-03-20T06:40:25.476Z,29.60
2023-03-20T06:42:52.088Z,26.47
2023-03-20T06:45:18.806Z,26.30
2023-03-20T06:47:47.073Z,21.67
2023-03-20T06:50:14.103Z,23.13
2023-03-20T06:52:41.060Z,21.87
2023-03-20T06:55:08.741Z,20.53
2023-03-20T06:57:35.896Z,19.20
2023-03-20T07:00:04.691Z,21.23
2023-03-20T07:02:31.873Z,17.43
2023-03-20T07:04:58.514Z,20.30
2023-03-20T07:07:25.144Z,16.07
2023-03-20T07:09:52.203Z,18.17
2023-03-20T07:12:19.966Z,16.50
2023-03-20T07:14:46.739Z,14.70
2023-03-20T07:17:13.541Z,16.47
2023-03-20T07:19:40.304Z,13.40
2023-03-20T07:22:11.856Z,13.83
2023-03-20T07:24:38.454Z,12.67
2023-03-20T07:27:05.018Z,10.43
2023-03-20T07:29:31.628Z,12.40
2023-03-20T07:32:00.850Z,15.90
2023-03-20T07:34:27.496Z,10.37
2023-03-20T07:36:54.105Z,15.27
2023-03-20T07:39:21.924Z,14.43
2023-03-20T07:41:48.558Z,8.67
2023-03-20T07:44:15.144Z,9.73
2023-03-20T07:46:41.775Z,10.40
2023-03-20T07:49:08.347Z,11.07
2023-03-20T07:51:34.971Z,10.00
2023-03-20T07:54:01.535Z,7.97
2023-03-20T07:56:28.116Z,8.80
2023-03-20T07:58:54.741Z,10.90
2023-03-20T08:01:21.538Z,15.23
2023-03-20T08:03:48.414Z,9.40
2023-03-20T08:06:15.026Z,10.87
2023-03-20T08:08:41.872Z,9.90
2023-03-20T08:11:08.543Z,13.77
2023-03-20T08:13:35.187Z,21.60
2023-03-20T08:16:01.880Z,10.50
2023-03-20T08:18:28.434Z,13.50
2023-03-20T08:20:55.271Z,11.00
2023-03-20T08:23:21.885Z,8.47
2023-03-20T08:25:49.814Z,14.93
2023-03-20T08:28:16.548Z,8.77
2023-03-20T08:30:43.545Z,11.10
2023-03-20T08:33:11.178Z,12.97
2023-03-20T08:35:38.393Z,12.30
2023-03-20T08:38:05.519Z,11.77
2023-03-20T08:40:32.602Z,11.93
2023-03-20T08:43:02.268Z,9.90
2023-03-20T08:45:28.940Z,9.00
2023-03-20T08:47:55.661Z,10.90
2023-03-20T08:50:22.462Z,11.70
2023-03-20T08:52:49.050Z,14.57
2023-03-20T08:55:16.330Z,7.20
2023-03-20T08:57:43.650Z,7.93
2023-03-20T09:00:14.258Z,8.80
2023-03-20T09:02:41.706Z,9.50
2023-03-20T09:05:09.653Z,12.90
2023-03-20T09:07:36.913Z,7.63
2023-03-20T09:10:05.006Z,12.13
2023-03-20T09:12:32.639Z,6.40
2023-03-20T09:14:59.920Z,9.63
2023-03-20T09:17:26.548Z,6.57
2023-03-20T09:19:53.148Z,7.57
2023-03-20T09:22:20.133Z,5.20
2023-03-20T09:24:47.092Z,4.57
2023-03-20T09:27:13.936Z,5.37
2023-03-20T09:29:41.515Z,6.10
2023-03-20T09:32:10.066Z,4.97
2023-03-20T09:34:36.643Z,6.27
2023-03-20T09:37:04.024Z,4.80
2023-03-20T09:39:30.703Z,5.47
2023-03-20T09:42:06.362Z,4.63
2023-03-20T09:44:57.843Z,2.77
2023-03-20T09:47:38.535Z,5.50
2023-03-20T09:50:30.517Z,4.47
2023-03-20T09:53:26.314Z,7.30
2023-03-20T09:55:54.179Z,3.40
2023-03-20T09:58:51.973Z,4.83
2023-03-20T10:01:20.817Z,7.13
2023-03-20T10:03:57.738Z,5.30
2023-03-20T10:06:24.456Z,4.27
2023-03-20T10:08:51.988Z,4.27
2023-03-20T10:11:37.388Z,2.87
2023-03-20T10:14:19.077Z,2.77
2023-03-20T10:17:13.145Z,7.50
2023-03-20T10:19:44.558Z,3.83
2023-03-20T10:22:35.236Z,6.53
2023-03-20T10:25:24.099Z,6.63
2023-03-20T10:28:06.221Z,6.63
2023-03-20T10:30:55.887Z,4.30
2023-03-20T10:33:37.488Z,7.80
2023-03-20T10:36:33.823Z,4.77
2023-03-20T10:39:30.252Z,4.83
2023-03-20T10:42:02.036Z,10.40
2023-03-20T10:44:38.913Z,5.50
2023-03-20T10:47:09.999Z,9.07
2023-03-20T10:50:06.983Z,5.63
2023-03-20T10:52:37.878Z,5.40
2023-03-20T10:55:20.571Z,4.17
2023-03-20T10:57:55.951Z,6.57
2023-03-20T11:00:25.400Z,4.10
2023-03-20T11:02:52.823Z,7.03
2023-03-20T11:05:25.482Z,6.50
2023-03-20T11:08:03.400Z,7.10
2023-03-20T11:10:33.282Z,5.93
2023-03-20T11:13:25.425Z,5.23
2023-03-20T11:15:53.715Z,5.60
2023-03-20T11:18:23.977Z,5.87
2023-03-20T11:20:53.738Z,6.83
2023-03-20T11:23:25.642Z,6.67
2023-03-20T11:25:58.063Z,8.80
2023-03-20T11:28:39.657Z,8.50
2023-03-20T11:31:06.619Z,6.23
2023-03-20T11:33:43.184Z,5.00
2023-03-20T11:36:27.813Z,6.20
2023-03-20T11:39:04.385Z,4.53
2023-03-20T11:41:30.955Z,6.43
2023-03-20T11:43:57.606Z,5.17
2023-03-20T11:46:25.476Z,8.80
2023-03-20T11:49:05.792Z,8.20
2023-03-20T11:51:35.218Z,10.27
2023-03-20T11:54:05.370Z,8.07
2023-03-20T11:56:33.895Z,3.90
2023-03-20T11:59:10.062Z,8.33
2023-03-20T12:01:46.794Z,4.57
2023-03-20T12:04:17.899Z,13.90
2023-03-20T12:06:47.084Z,5.70
2023-03-20T12:09:29.771Z,6.63
2023-03-20T12:12:30.879Z,6.27
2023-03-20T12:15:02.017Z,7.50
2023-03-20T12:18:08.388Z,5.20
2023-03-20T12:20:55.598Z,5.43
2023-03-20T12:23:47.539Z,7.63
2023-03-20T12:26:34.789Z,5.40
2023-03-20T12:29:16.852Z,6.63
2023-03-20T12:31:58.286Z,7.03
2023-03-20T12:34:54.302Z,5.70
2023-03-20T12:37:22.709Z,9.33
2023-03-20T12:39:57.054Z,7.10
2023-03-20T12:42:45.909Z,8.10
2023-03-20T12:45:44.235Z,10.63
2023-03-20T12:48:31.677Z,7.53
2023-03-20T12:51:21.742Z,8.43
2023-03-20T12:53:57.349Z,5.17
2023-03-20T12:56:48.042Z,8.27
2023-03-20T12:59:39.318Z,5.67
2023-03-20T13:02:34.103Z,5.27
2023-03-20T13:05:41.256Z,5.70
2023-03-20T13:08:32.304Z,7.70
2023-03-20T13:11:13.694Z,3.57
2023-03-20T13:13:55.924Z,8.50
2023-03-20T13:16:57.138Z,5.70
2023-03-20T13:19:36.897Z,9.97
2023-03-20T13:22:04.974Z,4.33
2023-03-20T13:24:41.743Z,4.77
2023-03-20T13:27:30.222Z,4.37
2023-03-20T13:30:33.824Z,9.47
2023-03-20T13:33:37.203Z,6.33
2023-03-20T13:36:29.398Z,6.83
2023-03-20T13:39:14.651Z,5.73
2023-03-20T13:41:43.090Z,8.40
2023-03-20T13:44:13.105Z,7.17
2023-03-20T13:46:45.732Z,4.90
2023-03-20T13:49:20.754Z,14.70
2023-03-20T13:52:00.258Z,39.33
2023-03-20T13:54:45.200Z,4.67
2023-03-20T13:57:41.223Z,3.73
2023-03-20T14:00:31.572Z,8.17
2023-03-20T14:03:07.062Z,8.20
2023-03-20T14:05:39.657Z,10.37
2023-03-20T14:08:28.176Z,9.47
2023-03-20T14:11:04.615Z,11.50
2023-03-20T14:13:32.580Z,9.30
2023-03-20T14:16:09.673Z,9.87
2023-03-20T14:18:37.874Z,15.70
2023-03-20T14:21:12.262Z,11.53
2023-03-20T14:23:44.185Z,11.20
2023-03-20T14:26:23.947Z,13.67
2023-03-20T14:29:21.631Z,7.37
2023-03-20T14:31:52.119Z,21.92
2023-03-20T14:34:24.564Z,16.90
2023-03-20T14:36:58.726Z,9.27
2023-03-20T14:39:46.355Z,8.00
2023-03-20T14:42:31.867Z,7.63
2023-03-20T14:45:13.743Z,6.60
2023-03-20T14:47:54.654Z,5.70
2023-03-20T14:50:33.138Z,6.80
2023-03-20T14:53:19.013Z,9.57
2023-03-20T14:55:57.494Z,6.43
2023-03-20T14:58:43.752Z,6.57
2023-03-20T15:01:22.647Z,6.93
2023-03-20T15:04:20.219Z,6.70
2023-03-20T15:06:55.668Z,9.47
2023-03-20T15:09:24.781Z,14.10
2023-03-20T15:11:52.686Z,7.97
2023-03-20T15:14:24.925Z,5.93
2023-03-20T15:17:01.038Z,8.53
2023-03-20T15:19:28.439Z,10.60
2023-03-20T15:21:56.341Z,12.37
2023-03-20T15:24:24.696Z,6.20
2023-03-20T15:26:54.611Z,8.77
2023-03-20T15:29:22.776Z,5.80
2023-03-20T15:32:12.395Z,7.20
2023-03-20T15:34:42.021Z,10.17
2023-03-20T15:37:15.200Z,7.03
2023-03-20T15:39:48.444Z,7.13
2023-03-20T15:42:18.763Z,6.63
2023-03-20T15:44:48.020Z,10.07
2023-03-20T15:47:23.291Z,11.63
2023-03-20T15:49:59.902Z,7.60
2023-03-20T15:52:41.713Z,7.37
2023-03-20T15:55:16.210Z,9.83
2023-03-20T15:57:47.922Z,13.20
2023-03-20T16:00:19.431Z,10.00
2023-03-20T16:02:48.659Z,12.67
2023-03-20T16:05:17.235Z,12.80
2023-03-20T16:07:44.048Z,6.57
2023-03-20T16:10:17.985Z,6.90
2023-03-20T16:12:54.412Z,8.87
2023-03-20T16:15:24.838Z,11.47
2023-03-20T16:17:57.904Z,9.30
2023-03-20T16:20:27.861Z,10.93
2023-03-20T16:23:00.676Z,10.97
2023-03-20T16:25:27.402Z,8.10
2023-03-20T16:27:55.005Z,9.27
2023-03-20T16:30:29.852Z,10.33
2023-03-20T16:33:01.094Z,9.87
2023-03-20T16:35:36.846Z,10.03
2023-03-20T16:38:16.407Z,12.27
2023-03-20T16:40:43.034Z,9.50
2023-03-20T16:43:20.046Z,8.67
2023-03-20T16:45:55.014Z,10.63
2023-03-20T16:48:31.609Z,16.80
2023-03-20T16:51:10.404Z,12.40
2023-03-20T16:53:46.949Z,8.93
2023-03-20T16:56:26.197Z,10.33
2023-03-20T16:58:56.520Z,8.30
2023-03-20T17:01:26.891Z,7.60
2023-03-20T17:03:58.611Z,11.53
2023-03-20T17:06:35.822Z,12.33
2023-03-20T17:09:15.215Z,10.10
2023-03-20T17:11:48.443Z,7.23
2023-03-20T17:14:15.974Z,9.50
2023-03-20T17:16:43.953Z,10.37
2023-03-20T17:19:18.566Z,9.60
2023-03-20T17:21:46.221Z,8.63
2023-03-20T17:24:14.499Z,8.70
2023-03-20T17:26:44.002Z,12.07
2023-03-20T17:29:12.023Z,6.37
2023-03-20T17:31:39.033Z,9.03
2023-03-20T17:34:05.915Z,11.97
2023-03-20T17:36:34.382Z,10.43
2023-03-20T17:39:01.620Z,9.13
2023-03-20T17:41:29.055Z,11.80
2023-03-20T17:43:58.781Z,9.30
2023-03-20T17:46:28.249Z,9.27
2023-03-20T17:49:12.781Z,8.30
2023-03-20T17:51:39.437Z,12.13
2023-03-20T17:54:06.040Z,6.03
2023-03-20T17:56:33.315Z,9.97
2023-03-20T17:59:01.189Z,13.40
2023-03-20T18:01:30.403Z,7.40
2023-03-20T18:03:58.632Z,10.00
2023-03-20T18:06:27.930Z,10.67
2023-03-20T18:08:56.722Z,9.73
2023-03-20T18:11:24.062Z,9.17
2023-03-20T18:13:50.999Z,8.27
2023-03-20T18:16:20.517Z,10.23
2023-03-20T18:18:47.297Z,10.03
2023-03-20T18:21:16.806Z,10.83
2023-03-20T18:23:44.271Z,8.17
2023-03-20T18:26:24.723Z,11.53
2023-03-20T18:28:53.780Z,9.37
2023-03-20T18:31:20.825Z,9.47
2023-03-20T18:33:52.054Z,12.60
2023-03-20T18:36:21.423Z,9.53
2023-03-20T18:38:48.191Z,12.57
2023-03-20T18:41:15.147Z,9.13
2023-03-20T18:43:42.240Z,9.30
2023-03-20T18:46:14.750Z,13.60
2023-03-20T18:48:41.925Z,12.93
2023-03-20T18:51:08.768Z,9.40
2023-03-20T18:53:35.525Z,9.90
2023-03-20T18:56:02.229Z,9.03
2023-03-20T18:58:30.099Z,12.10
2023-03-20T19:00:59.498Z,8.07
2023-03-20T19:03:28.300Z,10.90
2023-03-20T19:05:57.641Z,11.80
2023-03-20T19:08:24.313Z,9.83
2023-03-20T19:10:52.084Z,10.77
2023-03-20T19:13:21.015Z,9.83
2023-03-20T19:15:47.690Z,8.17
2023-03-20T19:18:24.800Z,10.00
2023-03-20T19:20:55.390Z,7.67
2023-03-20T19:23:23.872Z,7.50
2023-03-20T19:25:52.710Z,7.47
2023-03-20T19:28:38.801Z,8.47
2023-03-20T19:31:08.839Z,13.43
2023-03-20T19:33:36.175Z,13.47
2023-03-20T19:36:04.494Z,15.93
2023-03-20T19:38:32.083Z,10.90
2023-03-20T19:40:59.655Z,6.83
2023-03-20T19:43:28.560Z,9.67
2023-03-20T19:45:58.593Z,12.33
2023-03-20T19:48:46.489Z,9.03
2023-03-20T19:51:18.719Z,9.63
2023-03-20T19:53:46.386Z,7.13
2023-03-20T19:56:14.006Z,6.53
2023-03-20T19:58:40.761Z,8.90
2023-03-20T20:01:14.842Z,13.00
2023-03-20T20:03:41.981Z,6.10
2023-03-20T20:06:08.532Z,9.47
2023-03-20T20:08:47.555Z,11.50
2023-03-20T20:11:16.131Z,8.37
2023-03-20T20:14:04.066Z,10.83
2023-03-20T20:16:29.903Z,8.80
2023-03-20T20:18:56.602Z,13.70
2023-03-20T20:24:10.076Z,15.70
2023-03-20T20:26:41.236Z,8.77
2023-03-20T20:29:15.895Z,7.77
2023-03-20T20:31:44.258Z,11.17
2023-03-20T20:39:45.927Z,10.67
2023-03-20T20:42:12.920Z,13.93
2023-03-20T20:44:40.892Z,11.47
2023-03-20T20:47:08.320Z,8.87
2023-03-20T20:49:35.305Z,12.40
2023-03-20T20:52:02.207Z,10.97
2023-03-20T20:54:28.920Z,9.73
2023-03-20T20:56:56.041Z,11.57
2023-03-20T20:59:23.120Z,7.87
2023-03-20T21:01:50.600Z,9.77
2023-03-20T21:04:17.348Z,8.10
2023-03-20T21:07:08.141Z,8.47
2023-03-20T21:09:30.693Z,17.17
2023-03-20T21:11:57.413Z,9.17
2023-03-20T21:14:24.043Z,10.33
2023-03-20T21:16:50.708Z,9.20
2023-03-20T21:19:17.359Z,9.77
2023-03-20T21:21:43.995Z,7.27
2023-03-20T21:24:30.886Z,10.20
2023-03-20T21:26:59.322Z,6.83
2023-03-20T21:29:26.593Z,8.20
2023-03-20T21:31:53.543Z,9.63
2023-03-20T21:34:20.616Z,13.43
2023-03-20T21:36:49.198Z,16.30
2023-03-20T21:39:17.174Z,9.93
2023-03-20T21:41:43.913Z,9.23
2023-03-20T21:44:16.670Z,9.60
2023-03-20T21:50:30.707Z,7.33
2023-03-20T21:56:10.422Z,11.27
2023-03-20T22:01:23.178Z,9.17
2023-03-20T22:03:58.483Z,7.53
2023-03-20T22:07:13.088Z,9.60
2023-03-20T22:23:42.678Z,17.80
2023-03-20T22:32:11.020Z,13.10
2023-03-20T22:40:21.700Z,16.93
2023-03-20T22:42:51.133Z,16.30
2023-03-20T22:45:12.110Z,18.17
2023-03-20T22:47:39.081Z,18.33
2023-03-20T22:50:06.187Z,18.90
2023-03-20T22:52:48.002Z,15.03
2023-03-20T22:55:17.019Z,17.07
2023-03-20T22:57:56.281Z,15.97
2023-03-20T23:00:30.791Z,18.77
2023-03-20T23:03:11.256Z,17.07
2023-03-20T23:05:42.281Z,20.43
2023-03-20T23:08:10.917Z,15.07
2023-03-20T23:10:41.752Z,11.57
2023-03-20T23:13:08.401Z,15.00
2023-03-20T23:15:35.464Z,17.73
2023-03-20T23:18:02.038Z,12.53
2023-03-20T23:20:28.707Z,20.77
2023-03-20T23:22:55.352Z,21.17
2023-03-20T23:25:36.356Z,17.67
2023-03-20T23:28:05.535Z,19.47
2023-03-20T23:30:41.918Z,14.40
2023-03-20T23:33:11.820Z,19.70
2023-03-20T23:35:38.460Z,19.80
2023-03-20T23:38:05.232Z,18.23
2023-03-20T23:40:32.095Z,16.33
2023-03-20T23:42:58.708Z,14.60
2023-03-20T23:45:25.284Z,13.97
2023-03-20T23:47:51.930Z,18.73
2023-03-20T23:50:30.384Z,27.60
2023-03-20T23:53:13.526Z,25.73
2023-03-20T23:55:47.284Z,17.60
2023-03-20T23:58:14.172Z,21.27
